Mount Princeton, Colorado
Current Conditions -  °F | °C
As of 9:54 AM on Thursday 30 Oct 2014 (Local Time) from K7BM Reporting Station
Clear Clear  
Wind Chill: 44°   Ceiling: Unl
Heat Index: 46°   Visibility: 10mi
Dew Point: 14°   Wind: 5mph
Humidity: 27%   Direction: 120°ESE
Pressure: 30.49"   Gusts: NA
Location:  38.7194°N, 106.276°W
Report Text: K7BM 301554Z AUTO 12004KT 10SM CLR 08/M10 A3049 RMK AO2
Loading
Personal Weather Stations






























Interactive Weather Map New forecast layout! Learn more

10-Day Weather Forecast

Advertisements
Track Severe Weather on mobile